Toyo Eagle — H3LY — position and weather

sailwx.info

Track history (hours):
 
Tides and Currents Weather Stations Pressure Air Temp Water Temp Dewpoint Dewpoint Depression Visibility Wind Speed Wind Dir Waves Ship Positions

Toyo Eagle

Last reported at 2016-May-28 23:33 UTC. Time now 2016-May-29 21:13 UTC.
Position N 24°01' E 118°23'.

Length 108 m; draft 6.4 m.

Type: Cargo ship. MMSI: 355327000.

Date/timePositionNaut miles runAvg speedWind from/ knotsBaromVisibWave heightAir tempDewpointWater temp
2016-May-28 23:33N 24°01' E 118°23'1412.1
2016-May-28 22:24N 24°10' E 118°34'1511.8
2016-May-28 21:08N 24°21' E 118°45'1911.1
2016-May-28 19:24N 24°35' E 118°60'910.7
2016-May-28 18:33N 24°41' E 119°07'39511.0
2016-May-27 06:33N 30°24' E 122°48'1211.0
2016-May-27 05:30N 30°35' E 122°44'1111.2
2016-May-27 04:33N 30°43' E 122°37'28 9.4
2016-May-27 01:34N 31°03' E 122°12'1110.6
2016-May-27 00:33N 31°05' E 122°00'1413.7
2016-May-26 23:31N 31°14' E 121°47'1312.9
2016-May-26 22:33N 31°22' E 121°36'5 5.0
2016-May-26 21:33N 31°21' E 121°31'0 0.0
2016-May-26 20:33N 31°21' E 121°31'0 0.0
2016-May-26 17:27N 31°21' E 121°31'0 0.0
2016-May-26 16:27N 31°21' E 121°31'0 0.0
2016-May-26 15:21N 31°21' E 121°31'0 0.0
2016-May-26 14:27N 31°21' E 121°31'0 0.0
2016-May-26 13:21N 31°21' E 121°31'0 0.0
2016-May-26 12:33N 31°21' E 121°31'0 0.0
2016-May-26 11:27N 31°21' E 121°31'0 0.0
2016-May-26 10:21N 31°21' E 121°31'0 0.0
2016-May-26 09:15N 31°21' E 121°31'0 0.0
2016-May-26 08:33N 31°21' E 121°31'0 0.0
2016-May-26 07:33N 31°21' E 121°31'0 0.0
2016-May-26 06:33N 31°21' E 121°31'0 0.0
2016-May-26 04:09N 31°21' E 121°31'0 0.0
2016-May-26 03:33N 31°21' E 121°31'0 0.0
2016-May-26 02:33N 31°21' E 121°31'0 0.0
2016-May-26 01:33N 31°21' E 121°31'0 0.0
2016-May-26 00:21N 31°21' E 121°31'0 0.0
2016-May-25 23:33N 31°21' E 121°31'0 0.0
2016-May-25 22:33N 31°21' E 121°31'0 0.0
2016-May-25 21:33N 31°21' E 121°31'0 0.0
2016-May-25 20:33N 31°21' E 121°31'0 0.0
2016-May-25 19:27N 31°21' E 121°31'0 0.0
2016-May-25 18:21N 31°21' E 121°31'0 0.0
2016-May-25 17:33N 31°21' E 121°31'0 0.0
2016-May-25 16:33N 31°21' E 121°31'0 0.0
2016-May-25 15:33N 31°21' E 121°31'0 0.0
2016-May-25 14:27N 31°21' E 121°31'0 0.0
2016-May-25 13:33N 31°21' E 121°31'0 0.0
2016-May-25 11:15N 31°21' E 121°31'0 0.0
2016-May-25 10:09N 31°21' E 121°31'0 0.0
2016-May-25 09:33N 31°21' E 121°31'2 1.6
2016-May-25 08:33N 31°22' E 121°30'5 4.6
2016-May-25 07:33N 31°23' E 121°35'10 9.2
2016-May-25 06:31N 31°17' E 121°44'1312.9
2016-May-25 05:30N 31°08' E 121°55'  
2016-May-20 21:09N 34°16' E 138°14'8212.4
2016-May-20 14:31N 35°02' E 139°38'1313.1
2016-May-20 13:33N 35°12' E 139°46'1212.5
2016-May-20 12:33N 35°25' E 139°43'3 3.3
2016-May-20 11:33N 35°27' E 139°40'0 0.0
2016-May-20 10:33N 35°27' E 139°40'0 0.0
2016-May-20 09:33N 35°27' E 139°40'0 0.0
2016-May-20 08:33N 35°27' E 139°40'0 0.0
2016-May-20 07:33N 35°27' E 139°40'0 0.0
2016-May-20 06:33N 35°27' E 139°40'0 0.0
2016-May-20 05:33N 35°27' E 139°40'0 0.0
2016-May-20 04:33N 35°27' E 139°40'0 0.0
2016-May-20 03:33N 35°27' E 139°40'0 0.0
2016-May-20 02:33N 35°27' E 139°40'0 0.0
2016-May-20 01:33N 35°27' E 139°40'0 0.0
2016-May-20 00:33N 35°27' E 139°40'0 0.0
2016-May-19 23:33N 35°27' E 139°40'0 0.0
2016-May-19 22:33N 35°27' E 139°40'0 0.0
2016-May-19 21:33N 35°27' E 139°40'0 0.0
2016-May-19 20:33N 35°27' E 139°40'0 0.0
2016-May-19 19:33N 35°27' E 139°40'0 0.0
2016-May-19 18:33N 35°27' E 139°40'0 0.0
2016-May-19 17:33N 35°27' E 139°40'0 0.0
2016-May-19 16:33N 35°27' E 139°40'0 0.0
2016-May-19 15:33N 35°27' E 139°40'0 0.0
2016-May-19 14:33N 35°27' E 139°40'0 0.0
2016-May-19 13:33N 35°27' E 139°40'0 0.0
2016-May-19 12:33N 35°27' E 139°40'0 0.0
2016-May-19 11:33N 35°27' E 139°40'0 0.0
2016-May-19 10:33N 35°27' E 139°40'0 0.0
2016-May-19 09:33N 35°27' E 139°40'0 0.0
2016-May-19 08:33N 35°27' E 139°40'0 0.0
2016-May-19 07:33N 35°27' E 139°40'0 0.0
2016-May-19 06:33N 35°27' E 139°40'0 0.0
2016-May-19 05:33N 35°27' E 139°40'0 0.1
2016-May-19 04:33N 35°27' E 139°40'0 0.0
2016-May-19 03:33N 35°27' E 139°40'0 0.0
2016-May-19 02:33N 35°27' E 139°40'0 0.0
2016-May-19 01:33N 35°27' E 139°40'0 0.0
2016-May-19 00:33N 35°27' E 139°40'0 0.0
2016-May-18 23:33N 35°27' E 139°40'  
Track history (hours):
 
Tides and Currents Weather Stations Pressure Air Temp Water Temp Dewpoint Dewpoint Depression Visibility Wind Speed Wind Dir Waves Ship Positions

Toyo Eagle

Last reported at 2016-May-28 23:33 UTC. Time now 2016-May-29 21:13 UTC.
Position N 24°01' E 118°23'.

Length 108 m; draft 6.4 m.

Type: Cargo ship. MMSI: 355327000.

Date/timePositionNaut miles runAvg speedWind from/ knotsBaromVisibWave heightAir tempDewpointWater temp
2016-May-28 23:33N 24°01' E 118°23'1412.1
2016-May-28 22:24N 24°10' E 118°34'1511.8
2016-May-28 21:08N 24°21' E 118°45'1911.1
2016-May-28 19:24N 24°35' E 118°60'910.7
2016-May-28 18:33N 24°41' E 119°07'39511.0
2016-May-27 06:33N 30°24' E 122°48'1211.0
2016-May-27 05:30N 30°35' E 122°44'1111.2
2016-May-27 04:33N 30°43' E 122°37'28 9.4
2016-May-27 01:34N 31°03' E 122°12'1110.6
2016-May-27 00:33N 31°05' E 122°00'1413.7
2016-May-26 23:31N 31°14' E 121°47'1312.9
2016-May-26 22:33N 31°22' E 121°36'5 5.0
2016-May-26 21:33N 31°21' E 121°31'0 0.0
2016-May-26 20:33N 31°21' E 121°31'0 0.0
2016-May-26 17:27N 31°21' E 121°31'0 0.0
2016-May-26 16:27N 31°21' E 121°31'0 0.0
2016-May-26 15:21N 31°21' E 121°31'0 0.0
2016-May-26 14:27N 31°21' E 121°31'0 0.0
2016-May-26 13:21N 31°21' E 121°31'0 0.0
2016-May-26 12:33N 31°21' E 121°31'0 0.0
2016-May-26 11:27N 31°21' E 121°31'0 0.0
2016-May-26 10:21N 31°21' E 121°31'0 0.0
2016-May-26 09:15N 31°21' E 121°31'0 0.0
2016-May-26 08:33N 31°21' E 121°31'0 0.0
2016-May-26 07:33N 31°21' E 121°31'0 0.0
2016-May-26 06:33N 31°21' E 121°31'0 0.0
2016-May-26 04:09N 31°21' E 121°31'0 0.0
2016-May-26 03:33N 31°21' E 121°31'0 0.0
2016-May-26 02:33N 31°21' E 121°31'0 0.0
2016-May-26 01:33N 31°21' E 121°31'0 0.0
2016-May-26 00:21N 31°21' E 121°31'0 0.0
2016-May-25 23:33N 31°21' E 121°31'0 0.0
2016-May-25 22:33N 31°21' E 121°31'0 0.0
2016-May-25 21:33N 31°21' E 121°31'0 0.0
2016-May-25 20:33N 31°21' E 121°31'0 0.0
2016-May-25 19:27N 31°21' E 121°31'0 0.0
2016-May-25 18:21N 31°21' E 121°31'0 0.0
2016-May-25 17:33N 31°21' E 121°31'0 0.0
2016-May-25 16:33N 31°21' E 121°31'0 0.0
2016-May-25 15:33N 31°21' E 121°31'0 0.0
2016-May-25 14:27N 31°21' E 121°31'0 0.0
2016-May-25 13:33N 31°21' E 121°31'0 0.0
2016-May-25 11:15N 31°21' E 121°31'0 0.0
2016-May-25 10:09N 31°21' E 121°31'0 0.0
2016-May-25 09:33N 31°21' E 121°31'2 1.6
2016-May-25 08:33N 31°22' E 121°30'5 4.6
2016-May-25 07:33N 31°23' E 121°35'10 9.2
2016-May-25 06:31N 31°17' E 121°44'1312.9
2016-May-25 05:30N 31°08' E 121°55'  
2016-May-20 21:09N 34°16' E 138°14'8212.4
2016-May-20 14:31N 35°02' E 139°38'1313.1
2016-May-20 13:33N 35°12' E 139°46'1212.5
2016-May-20 12:33N 35°25' E 139°43'3 3.3
2016-May-20 11:33N 35°27' E 139°40'0 0.0
2016-May-20 10:33N 35°27' E 139°40'0 0.0
2016-May-20 09:33N 35°27' E 139°40'0 0.0
2016-May-20 08:33N 35°27' E 139°40'0 0.0
2016-May-20 07:33N 35°27' E 139°40'0 0.0
2016-May-20 06:33N 35°27' E 139°40'0 0.0
2016-May-20 05:33N 35°27' E 139°40'0 0.0
2016-May-20 04:33N 35°27' E 139°40'0 0.0
2016-May-20 03:33N 35°27' E 139°40'0 0.0
2016-May-20 02:33N 35°27' E 139°40'0 0.0
2016-May-20 01:33N 35°27' E 139°40'0 0.0
2016-May-20 00:33N 35°27' E 139°40'0 0.0
2016-May-19 23:33N 35°27' E 139°40'0 0.0
2016-May-19 22:33N 35°27' E 139°40'0 0.0
2016-May-19 21:33N 35°27' E 139°40'0 0.0
2016-May-19 20:33N 35°27' E 139°40'0 0.0
2016-May-19 19:33N 35°27' E 139°40'0 0.0
2016-May-19 18:33N 35°27' E 139°40'0 0.0
2016-May-19 17:33N 35°27' E 139°40'0 0.0
2016-May-19 16:33N 35°27' E 139°40'0 0.0
2016-May-19 15:33N 35°27' E 139°40'0 0.0
2016-May-19 14:33N 35°27' E 139°40'0 0.0
2016-May-19 13:33N 35°27' E 139°40'0 0.0
2016-May-19 12:33N 35°27' E 139°40'0 0.0
2016-May-19 11:33N 35°27' E 139°40'0 0.0
2016-May-19 10:33N 35°27' E 139°40'0 0.0
2016-May-19 09:33N 35°27' E 139°40'0 0.0
2016-May-19 08:33N 35°27' E 139°40'0 0.0
2016-May-19 07:33N 35°27' E 139°40'0 0.0
2016-May-19 06:33N 35°27' E 139°40'0 0.0
2016-May-19 05:33N 35°27' E 139°40'0 0.1
2016-May-19 04:33N 35°27' E 139°40'0 0.0
2016-May-19 03:33N 35°27' E 139°40'0 0.0
2016-May-19 02:33N 35°27' E 139°40'0 0.0
2016-May-19 01:33N 35°27' E 139°40'0 0.0
2016-May-19 00:33N 35°27' E 139°40'0 0.0
2016-May-18 23:33N 35°27' E 139°40'  

Dump ship's entire track history